Portada
METAR-TAF:

METAR-TAF

Aeropuertos :

Agra, India

latitud: 27-09-27N, longitud: 077-57-39E, altitud: 168 m

METAR: falta

Hora: 21:14 (15:44 UTC)

Pronóstico

El informe se hizo hace 6 horas y 14 minutos, a las 09:30 UTC
Pronóstico válido del 04 a las 12 UTC al 04 a las 24 UTC
Viento 10 kt del este
Visibilidad: 6000 m
Nubes dispersas a una altura de 2500 ft
Nubes dispersas a una altura de 25000 ft
Temporalmente
del 04 a las 12 UTC al 04 a las 14 UTC
Escasas nubes a una altura de 3000 ft, Cumulonimbus.
Nubes dispersas a una altura de 3000 ft
Cielo nuboso a una altura de 9000 ft

TAF: VIAG 040930Z 0412/0424 09010KT 6000 SCT025 SCT250 TEMPO 0412/0414 FEW030CB SCT030 BKN090

Observaciones y pronósticos meteorológicos de más de 4000 aeropuertos (mensajes METAR y TAF).

Los puntos amarillos y rojos representan las estaciones disponibles.

Ponga el ratón en el punto deseado para ver el nombre de la estación.

Haga clic para ver las observaciones y los pronósticos meteorológicos.

Para cambiar el mapa : haga clic en los botones verdes con una cruz de color negro para hacer un zoom, en el botón verde con un guión para alejar o en las flechas verdes para mapas adyacentes.


METAR-TAF: